Time;durP1;ratioP1;P1;durP2;ratioP2;P2;SDS_P1;SDS_P2;PMS_P1;PMS_P2;Temp;Humidity;BMP_temperature;BMP_pressure;BME280_temperature;BME280_humidity;BME280_pressure;Samples;Min_cycle;Max_cycle;Signal;HPM_P1;HPM_P2
2023/03/24 00:02:21;;;;;;;0.60;0.60;;;4.80;99.90;;;;;;5076115;28;20227;-73
2023/03/24 00:04:48;;;;;;;0.73;0.73;;;4.70;99.90;;;;;;5093552;28;20679;-73
2023/03/24 00:07:14;;;;;;;0.50;0.50;;;4.80;99.90;;;;;;5093427;28;20716;-73
2023/03/24 00:09:42;;;;;;;0.70;0.70;;;4.80;99.90;;;;;;5075231;28;20199;-73
2023/03/24 00:12:09;;;;;;;0.60;0.60;;;4.70;99.90;;;;;;5093431;28;20188;-72
2023/03/24 00:14:37;;;;;;;0.50;0.50;;;4.80;99.90;;;;;;5093188;28;20192;-73
2023/03/24 00:17:05;;;;;;;0.60;0.60;;;4.80;99.90;;;;;;5075293;28;20258;-73
2023/03/24 00:19:32;;;;;;;0.60;0.60;;;4.80;99.90;;;;;;5093036;28;20533;-73
2023/03/24 00:21:59;;;;;;;0.60;0.60;;;4.80;99.90;;;;;;5093246;28;20196;-73
2023/03/24 00:24:26;;;;;;;0.60;0.60;;;4.80;99.90;;;;;;5080075;28;20193;-74
2023/03/24 00:26:56;;;;;;;0.60;0.60;;;4.80;99.90;;;;;;5054951;28;20201;-73
2023/03/24 00:29:23;;;;;;;0.70;0.70;;;4.80;99.90;;;;;;5068033;28;20599;-73
2023/03/24 00:31:51;;;;;;;0.68;0.68;;;4.80;99.90;;;;;;5075203;28;20200;-72
2023/03/24 00:34:20;;;;;;;0.70;0.70;;;4.80;99.90;;;;;;5093237;28;20607;-72
2023/03/24 00:36:48;;;;;;;0.50;0.50;;;4.80;99.90;;;;;;5093561;28;20196;-72
2023/03/24 00:39:16;;;;;;;0.60;0.60;;;4.90;99.90;;;;;;5092693;28;20246;-73
2023/03/24 00:41:44;;;;;;;0.70;0.70;;;4.90;99.90;;;;;;5096071;28;20199;-72
2023/03/24 00:44:16;;;;;;;0.70;0.70;;;4.90;99.90;;;;;;5097295;28;20227;-72
2023/03/24 00:46:54;;;;;;;3.22;2.05;;;4.90;99.90;;;;;;5078921;28;20200;-72
2023/03/24 00:49:40;;;;;;;2.47;1.75;;;4.90;99.90;;;;;;5076309;28;20230;-72
2023/03/24 00:52:19;;;;;;;0.70;0.70;;;4.90;99.90;;;;;;5083839;28;20192;-73
2023/03/24 00:54:57;;;;;;;7.13;1.77;;;4.90;99.90;;;;;;5097324;28;20207;-73
2023/03/24 00:57:24;;;;;;;0.60;0.60;;;4.90;99.90;;;;;;5096557;28;20199;-72
2023/03/24 00:59:53;;;;;;;0.70;0.70;;;5.00;99.90;;;;;;5096798;28;20200;-72
2023/03/24 01:02:25;;;;;;;0.63;0.63;;;4.90;99.90;;;;;;5096944;28;20650;-72
2023/03/24 01:04:56;;;;;;;0.68;0.68;;;4.90;99.90;;;;;;5097075;28;20204;-73
2023/03/24 01:07:23;;;;;;;0.60;0.60;;;4.90;99.90;;;;;;5096487;28;20189;-72
2023/03/24 01:09:58;;;;;;;0.70;0.70;;;5.00;99.90;;;;;;5096726;28;20191;-72
2023/03/24 01:12:34;;;;;;;0.65;0.65;;;4.90;99.90;;;;;;5096486;28;20226;-73
2023/03/24 01:15:01;;;;;;;0.43;0.43;;;4.90;99.90;;;;;;5096736;28;20195;-73
2023/03/24 01:17:28;;;;;;;3.60;2.45;;;5.00;99.90;;;;;;5096317;28;20283;-73
2023/03/24 01:19:55;;;;;;;0.45;0.45;;;5.00;99.90;;;;;;5078434;28;20200;-73
2023/03/24 01:22:22;;;;;;;0.50;0.50;;;5.00;99.90;;;;;;5096325;28;20208;-73
2023/03/24 01:24:49;;;;;;;0.75;0.75;;;5.00;99.90;;;;;;5089144;28;20191;-73
2023/03/24 01:27:15;;;;;;;0.50;0.50;;;5.00;99.90;;;;;;5096394;28;20196;-73
2023/03/24 01:29:41;;;;;;;0.68;0.68;;;5.00;99.90;;;;;;5096239;28;20271;-72
2023/03/24 01:32:07;;;;;;;0.50;0.50;;;5.00;99.90;;;;;;5096355;28;20192;-73
2023/03/24 01:34:34;;;;;;;0.55;0.55;;;5.00;99.90;;;;;;5095478;28;20200;-73
2023/03/24 01:37:01;;;;;;;0.60;0.60;;;5.00;99.90;;;;;;5078064;28;20222;-72
2023/03/24 01:39:27;;;;;;;0.50;0.50;;;5.00;99.90;;;;;;5096008;28;20196;-72
2023/03/24 01:41:53;;;;;;;1.08;1.08;;;5.00;99.90;;;;;;5095971;28;20218;-72
2023/03/24 01:44:32;;;;;;;0.65;0.65;;;5.00;99.90;;;;;;5077867;28;20223;-73
2023/03/24 01:46:58;;;;;;;0.63;0.63;;;5.00;99.90;;;;;;5095997;28;20200;-73
2023/03/24 01:49:32;;;;;;;0.60;0.60;;;5.00;99.90;;;;;;5095702;28;20651;-73
2023/03/24 01:52:01;;;;;;;0.50;0.50;;;5.00;99.90;;;;;;5095514;28;20192;-73
2023/03/24 01:54:32;;;;;;;0.60;0.60;;;5.00;99.90;;;;;;5095504;28;20278;-73
2023/03/24 01:57:10;;;;;;;0.50;0.50;;;5.00;99.90;;;;;;5095959;28;20188;-73
2023/03/24 01:59:41;;;;;;;0.50;0.50;;;5.00;99.90;;;;;;5095625;28;20245;-73
2023/03/24 02:02:08;;;;;;;0.60;0.60;;;5.00;99.90;;;;;;5112064;22;20239;-72
2023/03/24 02:05:14;;;;;;;0.52;0.52;;;5.00;99.90;;;;;;5093345;28;20207;-73
2023/03/24 02:08:14;;;;;;;0.60;0.60;;;5.00;99.90;;;;;;5079793;28;20196;-73
2023/03/24 02:10:41;;;;;;;0.55;0.55;;;5.00;99.90;;;;;;5079435;28;20267;-74
2023/03/24 02:13:09;;;;;;;0.60;0.60;;;5.00;99.90;;;;;;5058463;28;20204;-74
2023/03/24 02:15:47;;;;;;;0.60;0.60;;;5.00;99.90;;;;;;5058517;28;20607;-74
2023/03/24 02:19:22;;;;;;;1.77;1.10;;;5.00;99.90;;;;;;5077744;28;20702;-75
2023/03/24 02:22:15;;;;;;;0.65;0.65;;;4.90;99.90;;;;;;5051862;28;20212;-75
2023/03/24 02:25:12;;;;;;;0.65;0.65;;;4.90;99.90;;;;;;5076076;28;20200;-75
2023/03/24 02:27:41;;;;;;;0.68;0.68;;;4.90;99.90;;;;;;5094339;28;20203;-75
2023/03/24 02:30:29;;;;;;;0.60;0.60;;;4.90;99.90;;;;;;5094607;28;20730;-76
2023/03/24 02:32:58;;;;;;;0.60;0.60;;;4.90;99.90;;;;;;5094613;28;20202;-74
2023/03/24 02:36:18;;;;;;;0.55;0.55;;;4.90;99.90;;;;;;5096501;28;20192;-75
2023/03/24 02:39:28;;;;;;;2.33;2.15;;;4.90;99.90;;;;;;5095853;28;20192;-75
2023/03/24 02:42:34;;;;;;;0.50;0.50;;;4.90;99.90;;;;;;5095779;28;20199;-74
2023/03/24 02:45:34;;;;;;;0.52;0.52;;;4.90;99.90;;;;;;5078701;28;20192;-74
2023/03/24 02:48:18;;;;;;;0.60;0.60;;;5.00;99.90;;;;;;5077398;28;20196;-75
2023/03/24 02:50:50;;;;;;;0.60;0.60;;;5.00;99.90;;;;;;5101426;28;20197;-75
2023/03/24 02:56:57;;;;;;;0.40;0.40;;;5.00;99.90;;;;;;5075192;28;20192;-74
2023/03/24 02:59:41;;;;;;;0.68;0.68;;;5.00;99.90;;;;;;5099871;28;20196;-74
2023/03/24 03:02:47;;;;;;;0.60;0.60;;;5.00;99.90;;;;;;5093627;28;20338;-74
2023/03/24 03:05:52;;;;;;;0.60;0.60;;;5.00;99.90;;;;;;5064318;28;20204;-74
2023/03/24 03:08:20;;;;;;;0.60;0.60;;;5.10;99.90;;;;;;5075458;28;20324;-74
2023/03/24 03:10:48;;;;;;;0.60;0.60;;;5.10;99.90;;;;;;5093551;28;20193;-74
2023/03/24 03:13:35;;;;;;;0.50;0.50;;;5.10;99.90;;;;;;5093756;28;20202;-75
2023/03/24 03:16:14;;;;;;;0.45;0.45;;;5.10;99.90;;;;;;5075528;28;20227;-76
2023/03/24 03:18:50;;;;;;;0.60;0.60;;;5.10;99.90;;;;;;5093517;28;20614;-75
2023/03/24 03:21:21;;;;;;;0.60;0.60;;;5.10;99.90;;;;;;5093763;28;20611;-76
2023/03/24 03:23:56;;;;;;;0.60;0.60;;;5.10;99.90;;;;;;5076044;28;20193;-76
2023/03/24 03:26:25;;;;;;;0.40;0.40;;;5.10;99.90;;;;;;5055611;28;20220;-76
2023/03/24 03:29:00;;;;;;;0.60;0.60;;;5.10;99.90;;;;;;5056414;28;20243;-76
2023/03/24 03:35:46;;;;;;;0.60;0.60;;;5.10;99.90;;;;;;5056374;28;20279;-76
2023/03/24 03:42:22;;;;;;;0.50;0.50;;;5.10;99.90;;;;;;4997111;28;20592;-74
2023/03/24 03:44:48;;;;;;;0.57;0.57;;;5.20;99.90;;;;;;4938270;29;20224;-75
2023/03/24 03:47:32;;;;;;;0.50;0.50;;;5.20;99.90;;;;;;4955366;28;20207;-75
2023/03/24 03:49:58;;;;;;;0.60;0.60;;;5.20;99.90;;;;;;4980247;28;20231;-73
2023/03/24 03:53:03;;;;;;;0.50;0.50;;;5.20;99.90;;;;;;4992461;28;20208;-74
2023/03/24 03:55:40;;;;;;;0.50;0.50;;;5.20;99.90;;;;;;4981363;28;20214;-77
2023/03/24 03:58:06;;;;;;;0.50;0.50;;;5.20;99.90;;;;;;4974539;28;20238;-73
2023/03/24 04:00:40;;;;;;;0.50;0.50;;;5.20;99.90;;;;;;4978986;28;20200;-74
2023/03/24 04:06:39;;;;;;;0.60;0.60;;;5.20;99.90;;;;;;4994745;28;20218;-75
2023/03/24 04:09:39;;;;;;;0.60;0.60;;;5.20;99.90;;;;;;4996461;28;20207;-74
2023/03/24 04:12:52;;;;;;;0.50;0.50;;;5.20;99.90;;;;;;4993089;28;20212;-74
2023/03/24 04:15:36;;;;;;;0.60;0.60;;;5.30;99.90;;;;;;4996081;28;20230;-76
2023/03/24 04:19:14;;;;;;;0.60;0.60;;;5.30;99.90;;;;;;5002387;28;20195;-75
2023/03/24 04:22:18;;;;;;;0.40;0.40;;;5.20;99.90;;;;;;4948959;28;20241;-75
2023/03/24 04:25:35;;;;;;;0.60;0.60;;;5.30;99.90;;;;;;5074752;28;20215;-73
2023/03/24 04:32:18;;;;;;;0.65;0.65;;;5.30;99.90;;;;;;5025260;28;20210;-73
2023/03/24 04:38:26;;;;;;;0.52;0.52;;;5.30;99.90;;;;;;4995671;28;20569;-73
2023/03/24 04:41:24;;;;;;;0.52;0.52;;;5.30;99.90;;;;;;5033792;28;20203;-75
2023/03/24 04:44:01;;;;;;;0.70;0.70;;;5.40;99.90;;;;;;4996758;28;20215;-75
2023/03/24 04:46:34;;;;;;;0.60;0.60;;;5.40;99.90;;;;;;5035649;28;20197;-75
2023/03/24 04:49:12;;;;;;;0.60;0.60;;;5.30;99.90;;;;;;5018367;28;20645;-76
2023/03/24 04:51:58;;;;;;;0.65;0.65;;;5.30;99.90;;;;;;5019906;28;20764;-76
2023/03/24 04:54:27;;;;;;;0.40;0.40;;;5.30;99.90;;;;;;5018354;28;20206;-76
2023/03/24 05:00:30;;;;;;;0.50;0.50;;;5.40;99.90;;;;;;5025870;28;20301;-77
2023/03/24 05:03:15;;;;;;;0.75;0.75;;;5.40;99.90;;;;;;5035360;28;20282;-76
2023/03/24 05:06:01;;;;;;;;;;;;;;;;;;;;;
2023/03/24 05:08:27;;;;;;;0.60;0.60;;;5.40;99.90;;;;;;5066447;28;20276;-76
2023/03/24 05:11:07;;;;;;;0.65;0.65;;;5.40;99.90;;;;;;5078388;28;20212;-73
2023/03/24 05:14:22;;;;;;;;;;;;;;;;;;;;;
2023/03/24 05:17:24;;;;;;;0.57;0.57;;;5.40;99.90;;;;;;5017412;28;20270;-77
2023/03/24 05:19:56;;;;;;;0.60;0.60;;;5.40;99.90;;;;;;4999676;28;20190;-73
2023/03/24 05:25:54;;;;;;;0.60;0.60;;;5.30;99.90;;;;;;5076499;28;20263;-76
2023/03/24 05:28:45;;;;;;;0.60;0.60;;;5.40;99.90;;;;;;5081004;28;20747;-77
2023/03/24 05:31:23;;;;;;;0.60;0.60;;;5.40;99.90;;;;;;5101210;28;20233;-74
2023/03/24 05:33:55;;;;;;;0.50;0.50;;;5.40;99.90;;;;;;5098032;28;20219;-77
2023/03/24 05:36:30;;;;;;;0.50;0.50;;;5.40;99.90;;;;;;5099328;28;20195;-74
2023/03/24 05:38:55;;;;;;;0.70;0.70;;;5.40;99.90;;;;;;5099996;28;20191;-73
2023/03/24 05:41:55;;;;;;;0.50;0.50;;;5.40;99.90;;;;;;5082282;28;20218;-75
2023/03/24 05:48:06;;;;;;;0.50;0.50;;;5.50;99.90;;;;;;5101473;28;20191;-75
2023/03/24 05:54:45;;;;;;;;;;;;;;;;;;;;;
2023/03/24 05:57:22;;;;;;;0.57;0.57;;;5.50;99.90;;;;;;5000230;28;20210;-74
2023/03/24 06:00:04;;;;;;;0.90;0.90;;;5.50;99.90;;;;;;5002877;28;20299;-74
2023/03/24 06:02:44;;;;;;;0.60;0.60;;;5.50;99.90;;;;;;4980127;28;20793;-75
2023/03/24 06:08:34;;;;;;;1.30;1.10;;;5.50;99.90;;;;;;4977322;28;20235;-77
2023/03/24 06:11:21;;;;;;;0.60;0.60;;;5.50;99.90;;;;;;4991460;28;20210;-77
2023/03/24 06:14:33;;;;;;;0.98;0.80;;;5.60;99.90;;;;;;5015878;28;20290;-75
2023/03/24 06:20:40;;;;;;;0.52;0.52;;;5.60;99.90;;;;;;5009680;28;20216;-75
2023/03/24 06:23:42;;;;;;;0.60;0.60;;;5.60;99.90;;;;;;5017769;28;20275;-76
2023/03/24 06:33:10;;;;;;;0.55;0.55;;;5.70;99.90;;;;;;4940579;29;20233;-76
2023/03/24 06:36:24;;;;;;;0.70;0.70;;;5.70;99.90;;;;;;4929091;29;20208;-76
2023/03/24 06:38:50;;;;;;;0.60;0.60;;;5.70;99.90;;;;;;4918376;29;20295;-75
2023/03/24 06:41:16;;;;;;;1.08;1.08;;;5.80;99.90;;;;;;4919887;29;20293;-75
2023/03/24 06:43:42;;;;;;;0.50;0.50;;;5.80;99.90;;;;;;4919793;29;20261;-76
2023/03/24 06:49:18;;;;;;;0.50;0.50;;;5.90;99.90;;;;;;4942016;29;20328;-74
2023/03/24 06:52:43;;;;;;;0.50;0.50;;;5.90;99.90;;;;;;4957254;29;20244;-75
2023/03/24 06:55:45;;;;;;;;;;;;;;;;;;;;;
2023/03/24 06:59:12;;;;;;;0.55;0.55;;;6.00;99.90;;;;;;4944482;29;20295;-75
2023/03/24 07:01:55;;;;;;;0.60;0.60;;;6.00;99.90;;;;;;4955478;29;20237;-75
2023/03/24 07:05:07;;;;;;;0.60;0.60;;;6.10;99.90;;;;;;4954016;29;20224;-76
2023/03/24 07:07:55;;;;;;;5.20;1.33;;;6.10;99.90;;;;;;4891921;28;20297;-75
2023/03/24 07:11:02;;;;;;;0.60;0.60;;;6.20;99.90;;;;;;4995516;28;20218;-75
2023/03/24 07:13:43;;;;;;;1.65;1.13;;;6.20;99.90;;;;;;4992964;28;20210;-75
2023/03/24 07:16:52;;;;;;;1.13;1.02;;;6.20;99.90;;;;;;4992122;28;20228;-76
2023/03/24 07:19:52;;;;;;;0.68;0.68;;;6.10;99.90;;;;;;4978484;28;20199;-75
2023/03/24 07:22:24;;;;;;;0.95;0.95;;;6.10;99.90;;;;;;4996662;28;20238;-75
2023/03/24 07:28:29;;;;;;;0.60;0.60;;;6.10;99.90;;;;;;4969111;28;20746;-76
2023/03/24 07:31:47;;;;;;;0.43;0.43;;;6.00;99.90;;;;;;4995146;28;20210;-76
2023/03/24 07:34:25;;;;;;;0.88;0.88;;;6.00;99.90;;;;;;4997316;28;20195;-76
2023/03/24 07:37:15;;;;;;;0.50;0.50;;;6.10;99.90;;;;;;4996879;28;20211;-75
2023/03/24 07:39:50;;;;;;;0.70;0.70;;;6.10;99.90;;;;;;4977297;28;20208;-75
2023/03/24 07:43:00;;;;;;;0.65;0.65;;;6.10;99.90;;;;;;4992089;28;20236;-76
2023/03/24 07:45:45;;;;;;;0.63;0.63;;;6.10;99.90;;;;;;5070019;28;20230;-75
2023/03/24 07:50:57;;;;;;;1.33;1.23;;;6.10;99.90;;;;;;5077876;28;20274;-74
2023/03/24 07:54:02;;;;;;;2.15;1.70;;;6.20;99.90;;;;;;5066725;28;20220;-75
2023/03/24 07:59:56;;;;;;;0.60;0.60;;;6.10;99.90;;;;;;5074392;28;20238;-75
2023/03/24 08:02:54;;;;;;;0.73;0.73;;;6.10;99.90;;;;;;5057222;28;20230;-75
2023/03/24 08:05:49;;;;;;;0.70;0.70;;;6.10;99.90;;;;;;5074118;28;20193;-75
2023/03/24 08:11:51;;;;;;;0.60;0.60;;;6.10;99.90;;;;;;5011723;28;20213;-74
2023/03/24 08:14:17;;;;;;;0.50;0.50;;;6.00;99.90;;;;;;4967829;28;20214;-74
2023/03/24 08:17:34;;;;;;;0.60;0.60;;;6.10;99.90;;;;;;4994212;28;20203;-75
2023/03/24 08:20:03;;;;;;;0.60;0.60;;;6.10;99.90;;;;;;4999436;28;20617;-75
2023/03/24 08:22:29;;;;;;;0.70;0.70;;;6.10;99.90;;;;;;5010033;28;20210;-75
2023/03/24 08:25:40;;;;;;;0.52;0.52;;;6.10;99.90;;;;;;4994077;28;20214;-74
2023/03/24 08:28:21;;;;;;;0.90;0.90;;;6.20;99.90;;;;;;4919856;29;20236;-75
2023/03/24 08:31:42;;;;;;;0.65;0.65;;;6.10;99.90;;;;;;4919375;29;20209;-75
2023/03/24 08:34:10;;;;;;;0.70;0.70;;;6.10;99.90;;;;;;4870613;29;20287;-74
2023/03/24 08:37:00;;;;;;;0.70;0.70;;;6.10;99.90;;;;;;4897589;29;20590;-74
2023/03/24 08:39:31;;;;;;;0.57;0.57;;;6.20;99.90;;;;;;4914611;29;20673;-75
2023/03/24 08:42:33;;;;;;;0.45;0.45;;;6.20;99.90;;;;;;4898521;29;20703;-74
2023/03/24 08:45:19;;;;;;;0.60;0.60;;;6.20;99.90;;;;;;4891556;29;20210;-75
2023/03/24 08:47:47;;;;;;;0.50;0.50;;;6.10;99.90;;;;;;4916056;29;20702;-75
2023/03/24 08:50:47;;;;;;;1.50;1.40;;;6.20;99.90;;;;;;4952678;29;20292;-76
2023/03/24 08:53:57;;;;;;;;;;;;;;;;;;;;;
2023/03/24 09:00:37;;;;;;;;;;;;;;;;;;;;;
2023/03/24 09:07:27;;;;;;;0.60;0.60;;;6.20;99.90;;;;;;4948882;29;20209;-78
2023/03/24 09:13:06;;;;;;;0.60;0.60;;;6.30;99.90;;;;;;4957938;28;20212;-76
2023/03/24 09:18:52;;;;;;;;;;;;;;;;;;;;;
2023/03/24 09:22:13;;;;;;;0.60;0.60;;;6.50;99.90;;;;;;4976478;28;20283;-75
2023/03/24 09:25:26;;;;;;;0.50;0.50;;;6.50;99.90;;;;;;4954764;29;20285;-76
2023/03/24 09:31:58;;;;;;;0.82;0.82;;;6.40;99.90;;;;;;4900933;29;20620;-73
2023/03/24 09:35:10;;;;;;;0.60;0.60;;;6.40;99.90;;;;;;4880686;29;20214;-72
2023/03/24 09:44:42;;;;;;;0.65;0.65;;;6.30;99.90;;;;;;4938679;29;20219;-72
2023/03/24 09:47:36;;;;;;;1.20;1.10;;;6.30;99.90;;;;;;4958659;28;20204;-73
2023/03/24 09:57:56;;;;;;;0.50;0.50;;;6.40;99.90;;;;;;4880866;29;20214;-74
2023/03/24 10:01:12;;;;;;;1.08;1.02;;;6.30;99.90;;;;;;4880123;29;20219;-74
2023/03/24 10:17:39;;;;;;;0.60;0.60;;;6.40;99.90;;;;;;4928618;29;20205;-73
2023/03/24 10:24:41;;;;;;;;;;;;;;;;;;;;;
2023/03/24 10:31:04;;;;;;;0.50;0.50;;;6.30;99.90;;;;;;4919931;29;20213;-73
2023/03/24 10:38:11;;;;;;;0.50;0.50;;;6.30;99.90;;;;;;4885275;29;20618;-74
2023/03/24 10:41:21;;;;;;;1.20;0.77;;;6.40;99.90;;;;;;4880635;29;20749;-71
2023/03/24 10:44:00;;;;;;;0.60;0.60;;;6.50;99.90;;;;;;4825150;29;20217;-77
2023/03/24 10:47:18;;;;;;;0.70;0.70;;;6.60;99.90;;;;;;4789212;29;20263;-76
2023/03/24 10:57:58;;;;;;;0.50;0.50;;;6.70;99.90;;;;;;4789445;30;20245;-75
2023/03/24 11:00:45;;;;;;;0.80;0.80;;;6.70;99.90;;;;;;4791108;29;20306;-75
2023/03/24 11:03:22;;;;;;;0.60;0.60;;;6.80;99.90;;;;;;4789459;30;20262;-74
2023/03/24 11:06:09;;;;;;;0.50;0.50;;;6.90;99.90;;;;;;4807776;29;20656;-75
2023/03/24 11:09:07;;;;;;;0.50;0.50;;;6.90;99.90;;;;;;4809294;29;20207;-76
2023/03/24 11:12:40;;;;;;;0.60;0.60;;;6.90;99.90;;;;;;4793384;29;20241;-71
2023/03/24 11:22:12;;;;;;;0.60;0.60;;;7.00;99.90;;;;;;4835602;29;20324;-72
2023/03/24 11:25:09;;;;;;;0.60;0.60;;;7.00;99.90;;;;;;4805088;29;20230;-72
2023/03/24 11:35:01;;;;;;;;;;;;;;;;;;;;;
2023/03/24 11:37:53;;;;;;;0.55;0.55;;;7.00;99.90;;;;;;5055044;28;20284;-72
2023/03/24 11:40:25;;;;;;;0.50;0.50;;;7.00;99.90;;;;;;5035115;28;20212;-74
2023/03/24 11:43:36;;;;;;;0.70;0.70;;;7.00;99.90;;;;;;5036129;28;20216;-72
2023/03/24 11:46:25;;;;;;;0.60;0.60;;;7.00;99.90;;;;;;5038027;28;20217;-76
2023/03/24 11:49:21;;;;;;;0.68;0.68;;;7.00;99.90;;;;;;5056071;28;20235;-76
2023/03/24 11:52:24;;;;;;;0.80;0.80;;;6.90;99.90;;;;;;5041072;28;20260;-76
2023/03/24 11:54:57;;;;;;;0.50;0.50;;;7.00;99.90;;;;;;5054223;28;20197;-76
2023/03/24 12:11:45;;;;;;;0.60;0.60;;;7.10;99.90;;;;;;4996206;28;20249;-76
2023/03/24 12:18:26;;;;;;;0.50;0.50;;;7.10;99.90;;;;;;5014088;28;20742;-75
2023/03/24 12:21:21;;;;;;;0.55;0.55;;;7.10;99.90;;;;;;4997175;28;20224;-76
2023/03/24 12:24:02;;;;;;;0.60;0.60;;;7.00;99.90;;;;;;5013908;28;20217;-77
2023/03/24 12:27:41;;;;;;;0.50;0.50;;;7.00;99.90;;;;;;5022259;28;20217;-77
2023/03/24 12:30:36;;;;;;;0.60;0.60;;;7.00;99.90;;;;;;4970154;28;20281;-75
2023/03/24 12:33:10;;;;;;;0.60;0.60;;;7.10;99.90;;;;;;5009940;28;20219;-75
2023/03/24 12:35:50;;;;;;;0.60;0.60;;;7.10;99.90;;;;;;5014272;28;20217;-75
2023/03/24 12:38:54;;;;;;;0.60;0.60;;;7.20;99.90;;;;;;5036344;28;20193;-75
2023/03/24 12:49:01;;;;;;;0.60;0.60;;;7.00;99.90;;;;;;5078673;28;20195;-75
2023/03/24 12:51:48;;;;;;;0.70;0.70;;;7.10;99.90;;;;;;5014459;28;20206;-75
2023/03/24 12:57:49;;;;;;;0.60;0.60;;;7.20;99.90;;;;;;4978968;28;20207;-76
2023/03/24 13:00:24;;;;;;;0.68;0.68;;;7.40;99.90;;;;;;5017409;28;20206;-75
2023/03/24 13:03:11;;;;;;;0.88;0.88;;;7.40;99.90;;;;;;5017351;28;20238;-74
2023/03/24 13:05:47;;;;;;;0.60;0.60;;;7.50;99.90;;;;;;5016985;28;20202;-74
2023/03/24 13:08:36;;;;;;;0.50;0.50;;;7.60;99.90;;;;;;5035206;28;20206;-76
2023/03/24 13:11:08;;;;;;;0.60;0.60;;;7.60;99.90;;;;;;5017491;28;20325;-75
2023/03/24 13:13:39;;;;;;;0.60;0.60;;;7.70;99.90;;;;;;5033742;28;20240;-75
2023/03/24 13:16:16;;;;;;;0.50;0.50;;;7.80;99.90;;;;;;5034316;28;20717;-75
2023/03/24 13:19:38;;;;;;;0.55;0.55;;;7.90;99.90;;;;;;5018660;28;20212;-75
2023/03/24 13:22:30;;;;;;;0.60;0.60;;;8.00;99.90;;;;;;4986038;28;20687;-75
2023/03/24 13:25:26;;;;;;;0.60;0.60;;;8.00;99.90;;;;;;5033958;28;20202;-74
2023/03/24 13:27:59;;;;;;;0.60;0.60;;;8.00;99.90;;;;;;5091121;28;20694;-75
2023/03/24 13:30:50;;;;;;;;;;;;;;;;;;;;;
2023/03/24 13:33:28;;;;;;;0.60;0.60;;;7.80;99.90;;;;;;5096624;28;20773;-76
2023/03/24 13:36:06;;;;;;;0.60;0.60;;;7.70;99.90;;;;;;5096049;28;20188;-76
2023/03/24 13:39:04;;;;;;;0.50;0.50;;;7.60;99.90;;;;;;5095669;28;20196;-75
2023/03/24 13:41:46;;;;;;;0.60;0.60;;;7.60;99.90;;;;;;5080102;28;20574;-75
2023/03/24 13:45:06;;;;;;;0.60;0.60;;;7.50;99.90;;;;;;5078584;28;20218;-75
2023/03/24 13:48:40;;;;;;;0.60;0.60;;;7.40;99.90;;;;;;5081458;28;20560;-76
2023/03/24 13:51:36;;;;;;;0.60;0.60;;;7.40;99.90;;;;;;5013520;28;20210;-74
2023/03/24 13:54:20;;;;;;;0.60;0.60;;;7.40;99.90;;;;;;5078148;28;20192;-75
2023/03/24 13:57:28;;;;;;;0.60;0.60;;;7.40;99.90;;;;;;5077104;28;20662;-75
2023/03/24 14:00:35;;;;;;;0.60;0.60;;;7.40;99.90;;;;;;5070609;28;20203;-75
2023/03/24 14:07:09;;;;;;;0.60;0.60;;;7.50;99.90;;;;;;5098622;28;20242;-75
2023/03/24 14:10:26;;;;;;;0.60;0.60;;;7.40;99.90;;;;;;5088011;28;20615;-75
2023/03/24 14:13:38;;;;;;;0.60;0.60;;;7.50;99.90;;;;;;5062005;28;20558;-74
2023/03/24 14:16:47;;;;;;;0.50;0.50;;;7.40;99.90;;;;;;5075689;28;20196;-75
2023/03/24 14:19:52;;;;;;;0.70;0.70;;;7.30;99.90;;;;;;5076149;28;20227;-75
2023/03/24 14:22:23;;;;;;;0.60;0.60;;;7.20;99.90;;;;;;5033140;28;20623;-74
2023/03/24 14:25:14;;;;;;;0.52;0.52;;;7.20;99.90;;;;;;5082803;28;20252;-75
2023/03/24 14:27:52;;;;;;;0.98;0.90;;;7.10;99.90;;;;;;5093729;28;20603;-75
2023/03/24 14:30:29;;;;;;;0.50;0.50;;;7.10;99.90;;;;;;5094760;28;20212;-74
2023/03/24 14:33:00;;;;;;;0.60;0.60;;;7.10;99.90;;;;;;5093474;28;20670;-73
2023/03/24 14:35:50;;;;;;;0.70;0.70;;;7.10;99.90;;;;;;5093337;28;20663;-74
2023/03/24 14:38:35;;;;;;;0.60;0.60;;;7.10;99.90;;;;;;5093803;28;20192;-74
2023/03/24 14:41:07;;;;;;;0.60;0.60;;;7.10;99.90;;;;;;5093464;28;20727;-74
2023/03/24 14:43:55;;;;;;;0.60;0.60;;;7.00;99.90;;;;;;5092889;28;20273;-74
2023/03/24 14:46:21;;;;;;;0.60;0.60;;;7.00;99.90;;;;;;5094138;28;20188;-75
2023/03/24 14:49:09;;;;;;;0.65;0.65;;;7.00;99.90;;;;;;5094400;28;20203;-74
2023/03/24 14:51:38;;;;;;;0.60;0.60;;;6.90;99.90;;;;;;5092592;28;20192;-74
2023/03/24 14:54:23;;;;;;;0.60;0.60;;;6.90;99.90;;;;;;5094107;28;20271;-75
2023/03/24 14:56:53;;;;;;;0.70;0.70;;;6.80;99.90;;;;;;5078593;28;20219;-74
2023/03/24 14:59:45;;;;;;;0.40;0.40;;;6.90;99.90;;;;;;5073650;28;20678;-75
2023/03/24 15:02:23;;;;;;;0.52;0.52;;;6.80;99.90;;;;;;5073492;28;20200;-74
2023/03/24 15:05:13;;;;;;;0.50;0.50;;;6.80;99.90;;;;;;5073777;28;20314;-74
2023/03/24 15:07:43;;;;;;;0.50;0.50;;;6.70;99.90;;;;;;5073451;28;20196;-74
2023/03/24 15:10:17;;;;;;;0.75;0.75;;;6.70;99.90;;;;;;5072409;28;20228;-74
2023/03/24 15:12:47;;;;;;;0.60;0.60;;;6.70;99.90;;;;;;5073394;28;20201;-74
2023/03/24 15:15:23;;;;;;;0.50;0.50;;;6.60;99.90;;;;;;5054592;28;20251;-74
2023/03/24 15:17:56;;;;;;;0.60;0.60;;;6.70;99.90;;;;;;5053563;28;20200;-75
2023/03/24 15:20:23;;;;;;;0.60;0.60;;;6.70;99.90;;;;;;5053647;28;20201;-73
2023/03/24 15:22:54;;;;;;;0.60;0.60;;;6.60;99.90;;;;;;5053294;28;20259;-73
2023/03/24 15:25:29;;;;;;;0.60;0.60;;;6.60;99.90;;;;;;5069419;28;20256;-74
2023/03/24 15:28:09;;;;;;;0.50;0.50;;;6.50;99.90;;;;;;5092113;28;20235;-74
2023/03/24 15:30:35;;;;;;;0.60;0.60;;;6.50;99.90;;;;;;5093470;28;20651;-75
2023/03/24 15:33:04;;;;;;;0.60;0.60;;;6.50;99.90;;;;;;5092183;28;20203;-74
2023/03/24 15:35:33;;;;;;;0.40;0.40;;;6.50;99.90;;;;;;5091939;28;20738;-75
2023/03/24 15:38:23;;;;;;;0.60;0.60;;;6.50;99.90;;;;;;5093394;28;20236;-75
2023/03/24 15:41:21;;;;;;;0.57;0.57;;;6.50;99.90;;;;;;5093263;28;20646;-75
2023/03/24 15:43:57;;;;;;;0.55;0.55;;;6.40;99.90;;;;;;5089288;28;20226;-76
2023/03/24 15:46:29;;;;;;;0.50;0.50;;;6.40;99.90;;;;;;5093042;28;20200;-74
2023/03/24 15:48:59;;;;;;;0.60;0.60;;;6.40;99.90;;;;;;5093352;28;20196;-74
2023/03/24 15:51:54;;;;;;;0.60;0.60;;;6.40;99.90;;;;;;5090907;28;20227;-74
2023/03/24 15:54:30;;;;;;;0.60;0.60;;;6.40;99.90;;;;;;5070658;28;20254;-74
2023/03/24 15:57:02;;;;;;;0.50;0.50;;;6.30;99.90;;;;;;5053054;28;20660;-74
2023/03/24 15:59:35;;;;;;;0.50;0.50;;;6.30;99.90;;;;;;5051679;28;20201;-74
2023/03/24 16:02:10;;;;;;;0.50;0.50;;;6.30;99.90;;;;;;5052837;28;20694;-75
2023/03/24 16:04:41;;;;;;;1.20;1.08;;;6.30;99.90;;;;;;5053771;28;20189;-74
2023/03/24 16:07:36;;;;;;;0.55;0.55;;;6.20;99.90;;;;;;5050498;28;20292;-75
2023/03/24 16:10:44;;;;;;;0.55;0.55;;;6.20;99.90;;;;;;5053242;28;20206;-75
2023/03/24 16:13:23;;;;;;;2.85;1.48;;;6.20;99.90;;;;;;5052162;28;20309;-75
2023/03/24 16:15:57;;;;;;;0.70;0.70;;;6.10;99.90;;;;;;5071578;28;20204;-75
2023/03/24 16:18:31;;;;;;;0.60;0.60;;;6.10;99.90;;;;;;5072732;28;20203;-75
2023/03/24 16:21:02;;;;;;;0.70;0.70;;;6.10;99.90;;;;;;5071874;28;20201;-75
2023/03/24 16:23:58;;;;;;;0.80;0.80;;;6.10;99.90;;;;;;5071710;28;20213;-75
2023/03/24 16:26:27;;;;;;;0.60;0.60;;;6.00;99.90;;;;;;5065824;28;20208;-75
2023/03/24 16:29:31;;;;;;;1.50;1.40;;;6.00;99.90;;;;;;5075883;28;20659;-75
2023/03/24 16:32:04;;;;;;;0.50;0.50;;;6.00;99.90;;;;;;5076499;28;20203;-75
2023/03/24 16:34:39;;;;;;;0.80;0.80;;;5.90;99.90;;;;;;5093172;28;20203;-75
2023/03/24 16:38:05;;;;;;;0.65;0.65;;;5.90;99.90;;;;;;5073602;28;20674;-75
2023/03/24 16:44:03;;;;;;;0.88;0.85;;;5.80;99.90;;;;;;4985222;28;20264;-74
2023/03/24 16:47:10;;;;;;;0.70;0.70;;;5.70;99.90;;;;;;5054245;28;20212;-74
2023/03/24 16:51:24;;;;;;;0.93;0.93;;;5.70;99.90;;;;;;5074460;28;20226;-75
2023/03/24 16:53:44;;;;;;;0.95;0.95;;;5.60;99.90;;;;;;4983594;28;20676;-75
2023/03/24 16:56:15;;;;;;;0.80;0.80;;;5.50;99.90;;;;;;5017093;28;20295;-75
2023/03/24 16:58:42;;;;;;;0.60;0.60;;;5.50;99.90;;;;;;5073257;28;20192;-75
2023/03/24 17:02:01;;;;;;;0.60;0.60;;;5.40;99.90;;;;;;5056100;28;20221;-75
2023/03/24 17:08:04;;;;;;;0.70;0.70;;;5.40;99.90;;;;;;4985376;28;20222;-74
2023/03/24 17:10:47;;;;;;;0.60;0.60;;;5.30;99.90;;;;;;4991519;28;20204;-74
2023/03/24 17:16:52;;;;;;;0.60;0.60;;;5.20;99.90;;;;;;4973403;28;20286;-74
2023/03/24 17:26:16;;;;;;;0.57;0.57;;;5.10;99.90;;;;;;4973634;28;20689;-74
2023/03/24 17:29:25;;;;;;;0.60;0.60;;;5.10;99.90;;;;;;4976397;28;20618;-76
2023/03/24 17:31:59;;;;;;;0.60;0.60;;;5.10;99.90;;;;;;4975575;28;20665;-76
2023/03/24 17:34:27;;;;;;;0.50;0.50;;;5.10;99.90;;;;;;4958452;28;20291;-76
2023/03/24 17:36:54;;;;;;;0.60;0.60;;;5.20;99.90;;;;;;4974611;28;20200;-73
2023/03/24 17:39:23;;;;;;;0.80;0.80;;;5.20;99.90;;;;;;4981621;28;20569;-74
2023/03/24 17:42:01;;;;;;;0.50;0.50;;;5.20;99.90;;;;;;5013490;28;20282;-75
2023/03/24 17:44:33;;;;;;;0.68;0.68;;;5.20;99.90;;;;;;5007334;28;20278;-73
2023/03/24 17:47:20;;;;;;;0.57;0.57;;;5.20;99.90;;;;;;4993831;28;20211;-74
2023/03/24 17:49:46;;;;;;;0.55;0.55;;;5.20;99.90;;;;;;4993660;28;20199;-74
2023/03/24 17:52:11;;;;;;;0.60;0.60;;;5.20;99.90;;;;;;5007909;28;20210;-75
2023/03/24 17:54:37;;;;;;;0.50;0.50;;;5.20;99.90;;;;;;5035414;28;21348;-73